createdAt,value
2023-04-22T00:00:26.784Z,65387.91
2023-04-22T00:02:56.026Z,65387.91
2023-04-22T00:05:23.681Z,65387.91
2023-04-22T00:07:51.134Z,65387.91
2023-04-22T00:10:19.858Z,65387.91
2023-04-22T00:12:47.232Z,65387.91
2023-04-22T00:15:14.662Z,65387.91
2023-04-22T00:17:42.672Z,65387.91
2023-04-22T00:20:11.725Z,65387.91
2023-04-22T00:22:39.110Z,65387.91
2023-04-22T00:25:07.352Z,65387.91
2023-04-22T00:27:36.039Z,65387.91
2023-04-22T00:30:03.577Z,65387.91
2023-04-22T00:32:30.992Z,65387.91
2023-04-22T00:34:58.366Z,65387.91
2023-04-22T00:37:26.243Z,65387.91
2023-04-22T00:39:53.661Z,65387.91
2023-04-22T00:42:22.437Z,65387.91
2023-04-22T00:44:52.139Z,65387.91
2023-04-22T00:47:20.667Z,65387.91
2023-04-22T00:49:51.036Z,65387.91
2023-04-22T00:52:18.410Z,65387.91
2023-04-22T00:54:46.724Z,65387.91
2023-04-22T00:57:14.129Z,65387.91
2023-04-22T00:59:41.862Z,65387.91
2023-04-22T01:02:11.429Z,65387.91
2023-04-22T01:04:40.175Z,65387.91
2023-04-22T01:07:07.632Z,65387.91
2023-04-22T01:09:35.759Z,65387.91
2023-04-22T01:12:03.412Z,65387.91
2023-04-22T01:14:30.815Z,65387.91
2023-04-22T01:16:58.730Z,65387.91
2023-04-22T01:19:29.315Z,65387.91
2023-04-22T01:21:57.298Z,65387.91
2023-04-22T01:24:26.466Z,65387.91
2023-04-22T01:26:53.843Z,65387.91
2023-04-22T01:29:21.498Z,65387.91
2023-04-22T01:31:49.270Z,65387.91
2023-04-22T01:34:16.808Z,65387.91
2023-04-22T01:36:45.126Z,65387.91
2023-04-22T01:39:12.674Z,65387.91
2023-04-22T01:41:42.019Z,65387.91
2023-04-22T01:44:09.506Z,65387.91
2023-04-22T01:46:36.997Z,65387.91
2023-04-22T01:49:04.789Z,65387.91
2023-04-22T01:51:32.323Z,65387.91
2023-04-22T01:53:59.725Z,65387.91
2023-04-22T01:56:27.061Z,65387.91
2023-04-22T01:58:55.764Z,65387.91
2023-04-22T02:01:23.155Z,65387.91
2023-04-22T02:03:50.848Z,65387.91
2023-04-22T02:06:18.314Z,65387.91
2023-04-22T02:08:45.844Z,65387.91
2023-04-22T02:11:13.257Z,65387.91
2023-04-22T02:13:41.997Z,65387.91
2023-04-22T02:16:11.475Z,65387.91
2023-04-22T02:18:38.938Z,65387.91
2023-04-22T02:21:06.456Z,65387.91
2023-04-22T02:23:33.898Z,65387.91
2023-04-22T02:26:02.606Z,65387.91
2023-04-22T02:28:30.201Z,65387.91
2023-04-22T02:30:57.931Z,65387.91
2023-04-22T02:33:26.706Z,65387.91
2023-04-22T02:35:54.143Z,65387.91
2023-04-22T02:38:21.502Z,65387.91
2023-04-22T02:40:48.866Z,65387.91
2023-04-22T02:43:16.266Z,65387.91
2023-04-22T02:45:43.665Z,65387.91
2023-04-22T02:48:11.059Z,65387.91
2023-04-22T02:50:39.819Z,65387.91
2023-04-22T02:53:07.180Z,65387.91
2023-04-22T02:55:34.548Z,65387.91
2023-04-22T02:58:01.963Z,65387.91
2023-04-22T03:00:30.357Z,65387.91
2023-04-22T03:02:57.925Z,65387.91
2023-04-22T03:05:25.456Z,65387.91
2023-04-22T03:07:54.756Z,65387.91
2023-04-22T03:10:22.128Z,65387.91
2023-04-22T03:12:50.043Z,65387.91
2023-04-22T03:15:20.573Z,65387.91
2023-04-22T03:17:48.791Z,65387.91
2023-04-22T03:20:16.977Z,65387.91
2023-04-22T03:22:45.260Z,65387.91
2023-04-22T03:25:14.234Z,65387.91
2023-04-22T03:27:41.803Z,65387.91
2023-04-22T03:30:09.781Z,65387.91
2023-04-22T03:32:37.166Z,65387.91
2023-04-22T03:35:04.823Z,65387.91
2023-04-22T03:37:32.200Z,65387.91
2023-04-22T03:39:59.556Z,65387.91
2023-04-22T03:42:28.242Z,65387.91
2023-04-22T03:44:55.618Z,65387.91
2023-04-22T03:47:22.999Z,65387.91
2023-04-22T03:49:50.422Z,65387.91
2023-04-22T03:52:17.782Z,65387.91
2023-04-22T03:54:45.164Z,65387.91
2023-04-22T03:57:12.547Z,65387.91
2023-04-22T03:59:41.533Z,65387.91
2023-04-22T04:02:09.259Z,65387.91
2023-04-22T04:04:37.025Z,65387.91
2023-04-22T04:07:04.823Z,65387.91
2023-04-22T04:09:33.745Z,65387.91
2023-04-22T04:12:01.104Z,65387.91
2023-04-22T04:14:30.478Z,65387.91
2023-04-22T04:16:59.456Z,65387.91
2023-04-22T04:19:26.843Z,65387.91
2023-04-22T04:21:54.225Z,65387.91
2023-04-22T04:24:21.599Z,65387.91
2023-04-22T04:26:49.484Z,65387.91
2023-04-22T04:29:20.131Z,65387.91
2023-04-22T04:31:47.661Z,65387.91
2023-04-22T04:34:17.601Z,65387.91
2023-04-22T04:36:46.352Z,65387.91
2023-04-22T04:39:18.207Z,65387.91
2023-04-22T04:41:45.937Z,65387.91
2023-04-22T04:44:13.333Z,65387.91
2023-04-22T04:46:41.106Z,65387.91
2023-04-22T04:49:12.478Z,65387.91
2023-04-22T04:51:41.227Z,65387.91
2023-04-22T04:54:08.646Z,65387.91
2023-04-22T04:56:36.117Z,65387.91
2023-04-22T04:59:03.508Z,65387.91
2023-04-22T05:01:30.994Z,65387.91
2023-04-22T05:03:58.471Z,65387.91
2023-04-22T05:06:26.976Z,65387.91
2023-04-22T05:08:55.722Z,65387.91
2023-04-22T05:11:23.109Z,65387.91
2023-04-22T05:13:50.548Z,65387.91
2023-04-22T05:16:17.966Z,65387.91
2023-04-22T05:18:45.341Z,65387.91
2023-04-22T05:21:12.710Z,65387.91
2023-04-22T05:23:40.375Z,65387.91
2023-04-22T05:26:09.053Z,65387.91
2023-04-22T05:28:36.419Z,65387.91
2023-04-22T05:31:03.805Z,65387.91
2023-04-22T05:33:31.210Z,65387.91
2023-04-22T05:35:58.683Z,65387.91
2023-04-22T05:38:26.100Z,65387.91
2023-04-22T05:40:53.471Z,65387.91
2023-04-22T05:43:22.160Z,65387.91
2023-04-22T05:45:49.599Z,65387.91
2023-04-22T05:48:17.022Z,65387.91
2023-04-22T05:50:44.396Z,65387.91
2023-04-22T05:53:14.380Z,65387.91
2023-04-22T05:55:41.795Z,65387.91
2023-04-22T05:58:09.245Z,65387.91
2023-04-22T06:00:37.956Z,65387.91
2023-04-22T06:03:05.448Z,65387.91
2023-04-22T06:05:32.939Z,65387.91
2023-04-22T06:08:00.712Z,65387.91
2023-04-22T06:10:28.088Z,65387.91
2023-04-22T06:12:57.107Z,65387.91
2023-04-22T06:15:26.234Z,65387.91
2023-04-22T06:17:55.044Z,65387.91
2023-04-22T06:20:22.565Z,65387.91
2023-04-22T06:22:49.913Z,65387.91
2023-04-22T06:25:17.518Z,65387.91
2023-04-22T06:27:45.002Z,65387.91
2023-04-22T06:30:12.818Z,65387.91
2023-04-22T06:32:40.230Z,65387.91
2023-04-22T06:35:09.934Z,65387.91
2023-04-22T06:37:37.690Z,65387.91
2023-04-22T06:40:05.737Z,65387.91
2023-04-22T06:42:33.101Z,65387.91
2023-04-22T06:45:00.499Z,65387.91
2023-04-22T06:47:27.908Z,65387.91
2023-04-22T06:49:55.351Z,65387.91
2023-04-22T06:52:24.289Z,65387.91
2023-04-22T06:54:51.790Z,65387.91
2023-04-22T06:57:20.594Z,65387.91
2023-04-22T06:59:48.176Z,65387.91
2023-04-22T07:02:15.775Z,65387.91
2023-04-22T07:04:43.246Z,65387.91
2023-04-22T07:07:10.709Z,65387.91
2023-04-22T07:09:40.181Z,65387.91
2023-04-22T07:12:07.766Z,65387.91
2023-04-22T07:14:35.121Z,65387.91
2023-04-22T07:17:02.529Z,65387.91
2023-04-22T07:19:30.047Z,65387.91
2023-04-22T07:21:57.416Z,65387.91
2023-04-22T07:24:24.800Z,65387.91
2023-04-22T07:26:53.493Z,65387.91
2023-04-22T07:29:22.893Z,65387.91
2023-04-22T07:31:50.328Z,65387.91
2023-04-22T07:34:19.466Z,65387.91
2023-04-22T07:36:46.929Z,65387.91
2023-04-22T07:39:14.299Z,65387.91
2023-04-22T07:41:41.670Z,65387.91
2023-04-22T07:44:12.934Z,65387.91
2023-04-22T07:46:40.334Z,65387.91
2023-04-22T07:49:07.696Z,65387.91
2023-04-22T07:51:35.422Z,65387.91
2023-04-22T07:54:02.782Z,65387.91
2023-04-22T07:56:30.142Z,65387.91
2023-04-22T07:58:57.503Z,65387.91
2023-04-22T08:01:26.275Z,65387.91
2023-04-22T08:03:53.980Z,65387.91
2023-04-22T08:06:21.602Z,65387.91
2023-04-22T08:08:51.208Z,100129.38
2023-04-22T08:11:18.664Z,100129.38
2023-04-22T08:13:46.078Z,100129.38
2023-04-22T08:16:13.466Z,99631.94
2023-04-22T08:18:42.202Z,99631.94
2023-04-22T08:21:09.569Z,99635.16
2023-04-22T08:23:36.910Z,99625.09
2023-04-22T08:26:04.594Z,99624.00
2023-04-22T08:28:32.429Z,99624.00
2023-04-22T08:30:59.844Z,99620.66
2023-04-22T08:33:27.449Z,99620.66
2023-04-22T08:35:56.223Z,99620.66
2023-04-22T08:38:23.574Z,99620.91
2023-04-22T08:40:52.074Z,99624.56
2023-04-22T08:43:20.193Z,99619.59
2023-04-22T08:45:48.195Z,99615.69
2023-04-22T08:48:16.172Z,99616.31
2023-04-22T08:50:43.555Z,99611.41
2023-04-22T08:53:12.240Z,99604.56
2023-04-22T08:55:41.400Z,99610.50
2023-04-22T08:58:08.784Z,99603.59
2023-04-22T09:00:36.280Z,99600.75
2023-04-22T09:03:06.703Z,99612.19
2023-04-22T09:05:34.948Z,99601.75
2023-04-22T09:08:03.562Z,99601.75
2023-04-22T09:10:34.686Z,99596.47
2023-04-22T09:13:04.388Z,99595.09
2023-04-22T09:15:31.935Z,99594.31
2023-04-22T09:17:59.414Z,99591.84
2023-04-22T09:20:28.762Z,99587.78
2023-04-22T09:22:57.921Z,99589.97
2023-04-22T09:25:28.891Z,99586.09
2023-04-22T09:27:59.034Z,99594.41
2023-04-22T09:30:29.080Z,99589.97
2023-04-22T09:32:57.972Z,99582.53
2023-04-22T09:35:29.848Z,99590.66
2023-04-22T09:37:57.939Z,99589.31
2023-04-22T09:40:27.687Z,99594.22
2023-04-22T09:42:57.101Z,99581.38
2023-04-22T09:45:33.248Z,99590.00
2023-04-22T09:48:03.825Z,99582.06
2023-04-22T09:50:31.281Z,99579.44
2023-04-22T09:53:01.034Z,99560.06
2023-04-22T09:55:30.931Z,99561.22
2023-04-22T09:57:58.988Z,99551.88
2023-04-22T10:00:30.562Z,99558.66
2023-04-22T10:02:59.446Z,99564.28
2023-04-22T10:05:27.038Z,99557.34
2023-04-22T10:07:54.485Z,99549.75
2023-04-22T10:10:22.105Z,99564.13
2023-04-22T10:12:49.755Z,99547.97
2023-04-22T10:15:18.443Z,99550.44
2023-04-22T10:17:47.809Z,99547.38
2023-04-22T10:20:19.606Z,99543.53
2023-04-22T10:22:49.230Z,99554.41
2023-04-22T10:25:22.957Z,99550.75
2023-04-22T10:27:55.064Z,99528.09
2023-04-22T10:30:29.463Z,99538.75
2023-04-22T10:32:57.004Z,99527.81
2023-04-22T10:35:29.960Z,99535.25
2023-04-22T10:37:58.207Z,99527.75
2023-04-22T10:40:25.577Z,99525.50
2023-04-22T10:42:55.808Z,99524.69
2023-04-22T10:45:26.463Z,99525.59
2023-04-22T10:47:53.859Z,99537.00
2023-04-22T10:50:25.974Z,99528.56
2023-04-22T10:52:57.074Z,99535.97
2023-04-22T10:55:26.156Z,99518.81
2023-04-22T10:57:54.654Z,99520.31
2023-04-22T11:00:45.740Z,99515.63
2023-04-22T11:03:26.140Z,99517.53
2023-04-22T11:06:14.457Z,99510.34
2023-04-22T11:08:47.286Z,99508.25
2023-04-22T11:11:14.740Z,99505.84
2023-04-22T11:13:43.714Z,99500.47
2023-04-22T11:16:11.456Z,99496.56
2023-04-22T11:18:39.159Z,99498.84
2023-04-22T11:21:08.661Z,99498.47
2023-04-22T11:23:36.691Z,99496.13
2023-04-22T11:26:07.109Z,99492.75
2023-04-22T11:28:34.658Z,99490.63
2023-04-22T11:31:03.373Z,99496.97
2023-04-22T11:33:30.874Z,99498.91
2023-04-22T11:35:58.581Z,99492.06
2023-04-22T11:38:26.013Z,99492.72
2023-04-22T11:40:56.294Z,99479.97
2023-04-22T11:43:27.370Z,99485.16
2023-04-22T11:45:57.045Z,99462.56
2023-04-22T11:48:24.736Z,99482.97
2023-04-22T11:51:08.892Z,99493.00
2023-04-22T11:53:40.180Z,99484.81
2023-04-22T11:56:07.704Z,99490.41
2023-04-22T11:58:40.190Z,99476.44
2023-04-22T12:01:07.589Z,99463.72
2023-04-22T12:03:35.664Z,99463.16
2023-04-22T12:06:06.660Z,99461.44
2023-04-22T12:08:36.439Z,99462.75
2023-04-22T12:11:06.096Z,99447.41
2023-04-22T12:13:42.799Z,99436.94
2023-04-22T12:16:12.938Z,99447.81
2023-04-22T12:18:41.795Z,99453.69
2023-04-22T12:21:12.597Z,99476.09
2023-04-22T12:23:44.211Z,99452.47
2023-04-22T12:26:12.019Z,99451.44
2023-04-22T12:28:41.777Z,99461.44
2023-04-22T12:31:10.331Z,99465.50
2023-04-22T12:33:39.181Z,99449.34
2023-04-22T12:36:07.254Z,99450.25
2023-04-22T12:38:35.104Z,99439.00
2023-04-22T12:41:02.910Z,99441.25
2023-04-22T12:43:32.139Z,99428.84
2023-04-22T12:46:01.013Z,99435.66
2023-04-22T12:48:28.413Z,99440.81
2023-04-22T12:50:57.223Z,99425.09
2023-04-22T12:53:24.963Z,99431.16
2023-04-22T12:55:52.490Z,99438.84
2023-04-22T12:58:19.966Z,99429.16
2023-04-22T13:00:47.479Z,99413.41
2023-04-22T13:03:16.473Z,99411.66
2023-04-22T13:05:46.967Z,99415.69
2023-04-22T13:08:14.340Z,99422.63
2023-04-22T13:10:41.710Z,99416.47
2023-04-22T13:15:39.662Z,99420.34
2023-04-22T13:18:07.268Z,99431.88
2023-04-22T13:20:36.039Z,99428.00
2023-04-22T13:23:04.439Z,99418.75
2023-04-22T13:25:31.877Z,99415.41
2023-04-22T13:27:59.305Z,99416.28
2023-04-22T13:30:26.885Z,99421.47
2023-04-22T13:32:54.275Z,99419.22
2023-04-22T13:35:22.636Z,99415.50
2023-04-22T13:37:51.677Z,99403.97
2023-04-22T13:40:19.114Z,99404.47
2023-04-22T13:42:46.566Z,99403.91
2023-04-22T13:45:14.014Z,99400.81
2023-04-22T13:47:41.459Z,99416.59
2023-04-22T13:50:09.956Z,99397.22
2023-04-22T13:52:37.345Z,99385.56
2023-04-22T13:55:07.000Z,99375.69
2023-04-22T13:57:34.367Z,99367.56
2023-04-22T14:00:01.801Z,99364.13
2023-04-22T14:02:29.292Z,99376.66
2023-04-22T14:04:56.741Z,99379.47
2023-04-22T14:07:24.482Z,99368.94
2023-04-22T14:09:51.830Z,99361.91
2023-04-22T14:12:20.588Z,99358.19
2023-04-22T14:14:47.966Z,99354.59
2023-04-22T14:17:15.505Z,99361.53
2023-04-22T14:19:44.850Z,99352.88
2023-04-22T14:22:12.330Z,99341.16
2023-04-22T14:24:39.762Z,99345.25
2023-04-22T14:27:07.163Z,99332.97
2023-04-22T14:29:38.214Z,99331.72
2023-04-22T14:32:06.432Z,99333.75
2023-04-22T14:34:33.881Z,99318.84
2023-04-22T14:37:01.300Z,99336.69
2023-04-22T14:39:28.665Z,99339.06
2023-04-22T14:41:56.858Z,99338.72
2023-04-22T14:44:24.286Z,99342.97
2023-04-22T14:46:52.969Z,99335.81
2023-04-22T14:49:22.405Z,99331.75
2023-04-22T14:51:50.281Z,99330.59
2023-04-22T14:54:17.632Z,99337.13
2023-04-22T14:56:45.052Z,99334.06
2023-04-22T14:59:12.568Z,99335.41
2023-04-22T15:01:41.712Z,99348.56
2023-04-22T15:04:12.689Z,99331.81
2023-04-22T15:06:40.211Z,99325.38
2023-04-22T15:09:07.679Z,99332.31
2023-04-22T15:11:35.102Z,99328.69
2023-04-22T15:14:02.549Z,99316.06
2023-04-22T15:16:30.881Z,99325.41
2023-04-22T15:18:58.398Z,99322.59
2023-04-22T15:21:27.158Z,99324.72
2023-04-22T15:23:54.518Z,99329.19
2023-04-22T15:26:21.982Z,99323.59
2023-04-22T15:28:50.716Z,99320.91
2023-04-22T15:31:18.179Z,99317.69
2023-04-22T15:33:46.809Z,99330.72
2023-04-22T15:36:17.998Z,99325.53
2023-04-22T15:38:47.773Z,99328.41
2023-04-22T15:41:15.544Z,99335.34
2023-04-22T15:43:42.893Z,99326.09
2023-04-22T15:46:10.303Z,99317.16
2023-04-22T15:48:38.890Z,99316.34
2023-04-22T15:51:06.323Z,99320.28
2023-04-22T15:53:33.740Z,99304.72
2023-04-22T15:56:02.407Z,99313.22
2023-04-22T15:58:32.437Z,99310.09
2023-04-22T16:01:15.405Z,99321.31
2023-04-22T16:03:46.806Z,99320.03
2023-04-22T16:06:14.664Z,99327.44
2023-04-22T16:08:42.078Z,99311.09
2023-04-22T16:11:10.870Z,99312.34
2023-04-22T16:13:39.279Z,99309.50
2023-04-22T16:16:07.198Z,99308.59
2023-04-22T16:18:34.622Z,99302.09
2023-04-22T16:21:02.402Z,99306.09
2023-04-22T16:23:29.772Z,99312.81
2023-04-22T16:25:58.312Z,99313.31
2023-04-22T16:28:28.028Z,99306.34
2023-04-22T16:30:55.441Z,99299.00
2023-04-22T16:33:22.834Z,99302.38
2023-04-22T16:35:50.186Z,99309.66
2023-04-22T16:38:17.606Z,99300.69
2023-04-22T16:40:45.092Z,99293.63
2023-04-22T16:43:12.893Z,99294.94
2023-04-22T16:45:42.116Z,99299.94
2023-04-22T16:48:09.526Z,99300.34
2023-04-22T16:50:36.914Z,99290.34
2023-04-22T16:53:04.686Z,99303.13
2023-04-22T16:55:32.082Z,99296.94
2023-04-22T16:58:02.508Z,99298.94
2023-04-22T17:00:30.429Z,99299.59
2023-04-22T17:02:59.377Z,99302.03
2023-04-22T17:05:26.929Z,99307.13
2023-04-22T17:07:54.346Z,99305.44
2023-04-22T17:10:22.213Z,99293.97
2023-04-22T17:12:49.800Z,99308.09
2023-04-22T17:15:17.429Z,99303.19
2023-04-22T17:17:44.832Z,99304.78
2023-04-22T17:20:13.683Z,99311.63
2023-04-22T17:22:41.230Z,99306.03
2023-04-22T17:25:09.529Z,99316.53
2023-04-22T17:27:36.965Z,99313.06
2023-04-22T17:30:04.766Z,99306.84
2023-04-22T17:32:32.243Z,99321.50
2023-04-22T17:34:59.654Z,99327.66
2023-04-22T17:37:28.376Z,99309.44
2023-04-22T17:39:56.725Z,99325.84
2023-04-22T17:42:32.211Z,99314.06
2023-04-22T17:45:07.565Z,99318.19
2023-04-22T17:47:35.024Z,99318.38
2023-04-22T17:50:02.415Z,99320.41
2023-04-22T17:52:31.211Z,99313.72
2023-04-22T17:54:59.933Z,99302.59
2023-04-22T17:57:28.253Z,99306.41
2023-04-22T17:59:55.713Z,99304.09
2023-04-22T18:02:24.877Z,99310.09
2023-04-22T18:04:52.387Z,99313.22
2023-04-22T18:07:19.741Z,99310.25
2023-04-22T18:09:49.537Z,99315.91
2023-04-22T18:12:17.056Z,99311.63
2023-04-22T18:14:44.582Z,99306.59
2023-04-22T18:17:12.575Z,99299.50
2023-04-22T18:19:40.141Z,99310.94
2023-04-22T18:22:07.701Z,99303.38
2023-04-22T18:24:37.455Z,99306.91
2023-04-22T18:27:07.653Z,99306.03
2023-04-22T18:29:38.195Z,99301.66
2023-04-22T18:32:06.077Z,99290.84
2023-04-22T18:34:33.599Z,99289.97
2023-04-22T18:37:02.124Z,99289.47
2023-04-22T18:39:29.512Z,99293.75
2023-04-22T18:41:56.875Z,99306.44
2023-04-22T18:44:25.576Z,99304.22
2023-04-22T18:46:54.717Z,99304.31
2023-04-22T18:49:22.109Z,99309.31
2023-04-22T18:51:49.544Z,99308.59
2023-04-22T18:54:17.004Z,99304.34
2023-04-22T18:56:46.215Z,99296.75
2023-04-22T18:59:16.136Z,99292.38
2023-04-22T19:01:45.159Z,99282.00
2023-04-22T19:04:12.823Z,99299.47
2023-04-22T19:06:40.604Z,99301.47
2023-04-22T19:09:07.995Z,99307.94
2023-04-22T19:11:36.693Z,99310.78
2023-04-22T19:14:04.069Z,99304.97
2023-04-22T19:16:31.561Z,99300.31
2023-04-22T19:19:00.329Z,99297.63
2023-04-22T19:21:29.774Z,99298.38
2023-04-22T19:23:57.164Z,99296.75
2023-04-22T19:26:24.538Z,99290.06
2023-04-22T19:28:51.905Z,99286.47
2023-04-22T19:31:19.335Z,99289.38
2023-04-22T19:33:46.906Z,99269.75
2023-04-22T19:36:15.602Z,99270.34
2023-04-22T19:38:43.231Z,99251.41
2023-04-22T19:41:13.436Z,99256.28
2023-04-22T19:43:43.714Z,99251.78
2023-04-22T19:46:12.791Z,99256.72
2023-04-22T19:48:40.734Z,99260.84
2023-04-22T19:51:09.937Z,99259.41
2023-04-22T19:53:40.968Z,99259.56
2023-04-22T19:56:09.267Z,99249.69
2023-04-22T19:58:36.741Z,99272.63
2023-04-22T20:01:04.663Z,99275.13
2023-04-22T20:03:32.899Z,99279.00
2023-04-22T20:06:01.219Z,99288.28
2023-04-22T20:08:29.107Z,99287.22
2023-04-22T20:10:59.449Z,99291.28
2023-04-22T20:13:27.227Z,99284.59
2023-04-22T20:15:54.941Z,99277.88
2023-04-22T20:18:22.533Z,99280.53
2023-04-22T20:20:51.697Z,99279.69
2023-04-22T20:23:24.933Z,99270.59
2023-04-22T20:25:53.543Z,99271.19
2023-04-22T20:28:23.019Z,99279.38
2023-04-22T20:30:51.145Z,99272.53
2023-04-22T20:33:19.669Z,99290.63
2023-04-22T20:35:49.923Z,99289.75
2023-04-22T20:38:19.316Z,99294.97
2023-04-22T20:40:47.659Z,99293.16
2023-04-22T20:43:15.168Z,99291.28
2023-04-22T20:45:43.988Z,99306.00
2023-04-22T20:48:11.546Z,99290.84
2023-04-22T20:50:38.908Z,99287.94
2023-04-22T20:53:08.706Z,99288.31
2023-04-22T20:55:37.196Z,99277.38
2023-04-22T20:58:04.840Z,99262.81
2023-04-22T21:00:32.520Z,99257.00
2023-04-22T21:03:01.458Z,99230.81
2023-04-22T21:05:31.143Z,99213.06
2023-04-22T21:08:01.279Z,99198.78
2023-04-22T21:10:29.276Z,99166.88
2023-04-22T21:12:56.848Z,99141.91
2023-04-22T21:15:25.031Z,99093.31
2023-04-22T21:17:56.328Z,99067.72
2023-04-22T21:20:26.990Z,99060.25
2023-04-22T21:22:59.530Z,99055.72
2023-04-22T21:25:27.823Z,99048.84
2023-04-22T21:27:55.962Z,99032.75
2023-04-22T21:30:24.249Z,99031.44
2023-04-22T21:32:51.664Z,99020.25
2023-04-22T21:35:19.332Z,99015.53
2023-04-22T21:37:48.698Z,99015.28
2023-04-22T21:40:16.266Z,99019.84
2023-04-22T21:42:43.634Z,99022.78
2023-04-22T21:45:12.068Z,99020.75
2023-04-22T21:47:39.505Z,99012.84
2023-04-22T21:50:07.928Z,99004.22
2023-04-22T21:52:35.476Z,98998.28
2023-04-22T21:55:04.609Z,98984.13
2023-04-22T21:57:31.997Z,98979.56
2023-04-22T22:00:00.632Z,98980.28
2023-04-22T22:02:28.121Z,98972.25
2023-04-22T22:04:55.699Z,98958.28
2023-04-22T22:07:23.202Z,98960.41
2023-04-22T22:09:50.649Z,98968.28
2023-04-22T22:12:19.324Z,98977.19
2023-04-22T22:14:46.699Z,98967.34
2023-04-22T22:17:14.072Z,98962.53
2023-04-22T22:19:41.858Z,98953.41
2023-04-22T22:22:09.261Z,98964.00
2023-04-22T22:24:36.666Z,98963.22
2023-04-22T22:27:04.860Z,98971.69
2023-04-22T22:29:33.581Z,98960.88
2023-04-22T22:32:01.053Z,98976.41
2023-04-22T22:34:29.281Z,98976.34
2023-04-22T22:36:56.714Z,98993.84
2023-04-22T22:39:24.378Z,98992.56
2023-04-22T22:41:51.780Z,98997.22
2023-04-22T22:44:19.150Z,99012.47
2023-04-22T22:46:47.943Z,99020.44
2023-04-22T22:49:15.369Z,99018.22
2023-04-22T22:51:42.840Z,99021.91
2023-04-22T22:54:10.257Z,99016.81
2023-04-22T22:56:37.659Z,99021.72
2023-04-22T22:59:05.040Z,99030.69
2023-04-22T23:01:32.800Z,99029.25
2023-04-22T23:04:01.802Z,99033.34
2023-04-22T23:06:29.315Z,99032.88
2023-04-22T23:08:57.022Z,99023.28
2023-04-22T23:11:24.710Z,99026.97
2023-04-22T23:13:52.115Z,99019.88
2023-04-22T23:16:19.555Z,99021.44
2023-04-22T23:18:47.537Z,99020.69
2023-04-22T23:21:16.891Z,99018.09
2023-04-22T23:23:44.621Z,98999.63
2023-04-22T23:26:12.789Z,98997.03
2023-04-22T23:28:40.619Z,98983.41
2023-04-22T23:31:09.937Z,98989.00
2023-04-22T23:33:42.257Z,98982.03
2023-04-22T23:36:11.053Z,98966.22
2023-04-22T23:38:39.832Z,98968.78
2023-04-22T23:41:07.239Z,98963.56
2023-04-22T23:43:34.628Z,98952.44
2023-04-22T23:46:02.291Z,98943.63
2023-04-22T23:48:29.667Z,98945.47
2023-04-22T23:50:57.072Z,98939.56
2023-04-22T23:53:24.470Z,98945.81
2023-04-22T23:55:53.785Z,98954.72
2023-04-22T23:58:21.525Z,98975.47
